East Galesburg, Illinois
Current Conditions -  °F | °C
As of 2:35 PM on Saturday 20 Dec 2014 (Local Time) from KGBG Reporting Station
Haze Haze  
Wind Chill: 29°   Ceiling: 1400
Heat Index: 34°   Visibility: 5mi
Dew Point: 30°   Wind: 6mph
Humidity: 84%   Direction: 130°SE
Pressure: 30.19"   Gusts: NA
Location:  40.95°N, 90.31°W
Report Text: KGBG 202035Z AUTO 13005KT 5SM HZ BKN014 OVC034 01/M01 A3019 RMK AO2 T00111013
Loading
Personal Weather Stations






























Interactive Weather Map New forecast layout! Learn more

10-Day Weather Forecast

Advertisements
Track Severe Weather on mobile